DLH1MK EKCH-EDDN
Flight info
| Callsign | DLH1MK |
|---|---|
| Flight time | N/A |
| Altitude | 36000 |
| Route | SALLO M736 BAKDO DCT MAG M736 BARAP/N0443F300 M736 GALMA/N0435F290 M736 TABAT Q244 PIVIR PIVIR1V |
| Aircraft | A21N/M-SDE2E3FGHIRWXY/LB1 |
Departure
| Time | 2026-05-04 18:18 |
|---|---|
| Airport | Copenhagen Kastrup Airport (EKCH) |
Arrival
| Time | N/A |
|---|---|
| Airport | Nuremberg Airport (EDDN) |
| Time | Latitude | Longitude | Altitude | Speed | Heading |
|---|---|---|---|---|---|
| 2026-05-04 17:39 | 55.62898 | 12.63872 | 26 ft | 0 kts | 10° |
| 2026-05-04 18:02 | 55.62892 | 12.63870 | 26 ft | 2 kts | 10° |
| 2026-05-04 18:03 | 55.62878 | 12.63866 | 26 ft | 2 kts | 10° |
| 2026-05-04 18:03 | 55.62863 | 12.63861 | 26 ft | 2 kts | 9° |
| 2026-05-04 18:03 | 55.62850 | 12.63849 | 26 ft | 2 kts | 54° |
| 2026-05-04 18:03 | 55.62844 | 12.63823 | 26 ft | 2 kts | 91° |
| 2026-05-04 18:04 | 55.62845 | 12.63812 | 26 ft | 0 kts | 108° |
| 2026-05-04 18:04 | 55.62841 | 12.63846 | 26 ft | 4 kts | 104° |
| 2026-05-04 18:04 | 55.62835 | 12.63890 | 26 ft | 1 kts | 104° |
| 2026-05-04 18:05 | 55.62835 | 12.63892 | 26 ft | 0 kts | 104° |
| 2026-05-04 18:10 | 55.62833 | 12.63907 | 26 ft | 2 kts | 104° |
| 2026-05-04 18:11 | 55.62827 | 12.63944 | 26 ft | 4 kts | 104° |
| 2026-05-04 18:11 | 55.62812 | 12.63975 | 26 ft | 4 kts | 187° |
| 2026-05-04 18:11 | 55.62774 | 12.63955 | 26 ft | 6 kts | 209° |
| 2026-05-04 18:11 | 55.62731 | 12.63908 | 26 ft | 7 kts | 214° |
| 2026-05-04 18:12 | 55.62685 | 12.63852 | 26 ft | 5 kts | 213° |
| 2026-05-04 18:12 | 55.62651 | 12.63869 | 26 ft | 6 kts | 141° |
| 2026-05-04 18:12 | 55.62618 | 12.63948 | 26 ft | 9 kts | 123° |
| 2026-05-04 18:12 | 55.62577 | 12.64061 | 25 ft | 12 kts | 123° |
| 2026-05-04 18:13 | 55.62522 | 12.64208 | 26 ft | 15 kts | 124° |
| 2026-05-04 18:13 | 55.62456 | 12.64369 | 26 ft | 16 kts | 129° |
| 2026-05-04 18:13 | 55.62350 | 12.64430 | 25 ft | 0 kts | 194° |
| 2026-05-04 18:15 | 55.62315 | 12.64414 | 25 ft | 12 kts | 195° |
| 2026-05-04 18:15 | 55.62020 | 12.64194 | 26 ft | 25 kts | 206° |
| 2026-05-04 18:15 | 55.61861 | 12.64077 | 23 ft | 24 kts | 188° |
| 2026-05-04 18:16 | 55.61759 | 12.64082 | 24 ft | 2 kts | 174° |
| 2026-05-04 18:16 | 55.61753 | 12.64083 | 24 ft | 0 kts | 176° |
| 2026-05-04 18:17 | 55.61691 | 12.64090 | 24 ft | 10 kts | 176° |
| 2026-05-04 18:17 | 55.61604 | 12.64039 | 23 ft | 17 kts | 220° |
| 2026-05-04 18:17 | 55.60871 | 12.62907 | 20 ft | 138 kts | 221° |
| 2026-05-04 18:18 | 55.60043 | 12.61679 | 354 ft | 164 kts | 222° |
| 2026-05-04 18:18 | 55.59152 | 12.60378 | 1017 ft | 171 kts | 222° |
| 2026-05-04 18:18 | 55.58240 | 12.59057 | 1756 ft | 175 kts | 223° |
| 2026-05-04 18:18 | 55.57291 | 12.57690 | 2446 ft | 183 kts | 223° |
| 2026-05-04 18:19 | 55.54978 | 12.55086 | 3592 ft | 221 kts | 207° |
| 2026-05-04 18:19 | 55.53500 | 12.54074 | 4209 ft | 240 kts | 204° |
| 2026-05-04 18:19 | 55.51880 | 12.53062 | 4831 ft | 259 kts | 203° |
| 2026-05-04 18:20 | 55.50138 | 12.52023 | 5638 ft | 270 kts | 202° |
| 2026-05-04 18:20 | 55.48347 | 12.50974 | 6650 ft | 272 kts | 202° |
| 2026-05-04 18:20 | 55.46565 | 12.49970 | 7675 ft | 275 kts | 198° |
| 2026-05-04 18:20 | 55.44650 | 12.49875 | 8581 ft | 289 kts | 171° |
| 2026-05-04 18:21 | 55.42829 | 12.51436 | 9466 ft | 302 kts | 143° |
| 2026-05-04 18:21 | 55.41561 | 12.54423 | 10299 ft | 314 kts | 115° |
| 2026-05-04 18:21 | 55.40890 | 12.58137 | 10882 ft | 329 kts | 107° |
| 2026-05-04 18:21 | 55.40280 | 12.62114 | 11320 ft | 347 kts | 107° |
| 2026-05-04 18:22 | 55.39628 | 12.66250 | 11759 ft | 363 kts | 108° |
| 2026-05-04 18:22 | 55.38911 | 12.70598 | 12361 ft | 373 kts | 108° |
| 2026-05-04 18:22 | 55.38168 | 12.74976 | 13101 ft | 378 kts | 109° |
| 2026-05-04 18:22 | 55.37414 | 12.79368 | 13871 ft | 381 kts | 109° |
| 2026-05-04 18:23 | 55.36649 | 12.83802 | 14605 ft | 386 kts | 109° |
| 2026-05-04 18:23 | 55.35862 | 12.88350 | 15321 ft | 390 kts | 109° |
| 2026-05-04 18:23 | 55.35078 | 12.92866 | 16012 ft | 394 kts | 109° |
| 2026-05-04 18:23 | 55.34257 | 12.97477 | 16698 ft | 396 kts | 112° |
| 2026-05-04 18:24 | 55.32919 | 13.01602 | 17333 ft | 393 kts | 135° |
| 2026-05-04 18:24 | 55.30806 | 13.04579 | 18013 ft | 385 kts | 156° |
| 2026-05-04 18:24 | 55.28408 | 13.06497 | 18654 ft | 382 kts | 168° |
| 2026-05-04 18:24 | 55.25834 | 13.07155 | 19233 ft | 377 kts | 182° |
| 2026-05-04 18:25 | 55.23199 | 13.07292 | 19831 ft | 380 kts | 184° |
| 2026-05-04 18:25 | 55.20565 | 13.07383 | 20432 ft | 384 kts | 184° |
| 2026-05-04 18:25 | 55.17865 | 13.07519 | 21054 ft | 387 kts | 184° |
| 2026-05-04 18:25 | 55.15196 | 13.07694 | 21646 ft | 391 kts | 183° |
| 2026-05-04 18:26 | 55.12495 | 13.07903 | 22230 ft | 394 kts | 183° |
| 2026-05-04 18:26 | 55.09748 | 13.08133 | 22827 ft | 396 kts | 183° |
| 2026-05-04 18:26 | 55.07017 | 13.08371 | 23374 ft | 400 kts | 183° |
| 2026-05-04 18:26 | 55.04218 | 13.08622 | 23913 ft | 403 kts | 184° |
| 2026-05-04 18:27 | 55.01438 | 13.08875 | 24454 ft | 406 kts | 184° |
| 2026-05-04 18:27 | 54.98616 | 13.09133 | 25002 ft | 408 kts | 184° |
| 2026-05-04 18:27 | 54.95760 | 13.09395 | 25533 ft | 411 kts | 184° |
| 2026-05-04 18:27 | 54.92930 | 13.09599 | 26043 ft | 410 kts | 188° |
| 2026-05-04 18:28 | 54.90158 | 13.08832 | 26522 ft | 400 kts | 201° |
| 2026-05-04 18:28 | 54.87487 | 13.07462 | 27053 ft | 400 kts | 204° |
| 2026-05-04 18:28 | 54.84858 | 13.06036 | 27523 ft | 402 kts | 204° |
| 2026-05-04 18:28 | 54.82162 | 13.04608 | 27966 ft | 405 kts | 204° |
| 2026-05-04 18:29 | 54.79480 | 13.03230 | 28389 ft | 407 kts | 203° |
| 2026-05-04 18:29 | 54.76765 | 13.01868 | 28782 ft | 410 kts | 203° |
| 2026-05-04 18:29 | 54.74028 | 13.00516 | 29160 ft | 412 kts | 202° |
| 2026-05-04 18:29 | 54.71258 | 12.99165 | 29551 ft | 414 kts | 203° |
| 2026-05-04 18:30 | 54.65714 | 12.96489 | 30182 ft | 418 kts | 203° |
| 2026-05-04 18:30 | 54.62896 | 12.95135 | 30513 ft | 419 kts | 202° |
| 2026-05-04 18:30 | 54.60100 | 12.93798 | 30814 ft | 420 kts | 202° |
| 2026-05-04 18:31 | 54.57283 | 12.92453 | 31050 ft | 422 kts | 202° |
| 2026-05-04 18:31 | 54.54454 | 12.91105 | 31278 ft | 424 kts | 202° |
| 2026-05-04 18:31 | 54.51641 | 12.89770 | 31583 ft | 424 kts | 202° |
| 2026-05-04 18:31 | 54.48774 | 12.88409 | 31932 ft | 423 kts | 202° |
| 2026-05-04 18:32 | 54.45955 | 12.87074 | 32233 ft | 422 kts | 202° |
| 2026-05-04 18:32 | 54.43129 | 12.85739 | 32507 ft | 423 kts | 202° |
| 2026-05-04 18:32 | 54.40300 | 12.84404 | 32767 ft | 423 kts | 202° |
| 2026-05-04 18:32 | 54.37485 | 12.83075 | 33008 ft | 424 kts | 202° |
| 2026-05-04 18:33 | 54.34631 | 12.81732 | 33278 ft | 424 kts | 202° |
| 2026-05-04 18:33 | 54.31784 | 12.80394 | 33525 ft | 425 kts | 202° |
| 2026-05-04 18:33 | 54.28954 | 12.79066 | 33783 ft | 425 kts | 202° |
| 2026-05-04 18:33 | 54.26107 | 12.77731 | 34046 ft | 425 kts | 202° |
| 2026-05-04 18:34 | 54.23268 | 12.76403 | 34312 ft | 424 kts | 201° |
| 2026-05-04 18:34 | 54.20454 | 12.75089 | 34575 ft | 424 kts | 201° |
| 2026-05-04 18:34 | 54.17621 | 12.73767 | 34815 ft | 424 kts | 202° |
| 2026-05-04 18:34 | 54.14784 | 12.72444 | 34980 ft | 425 kts | 202° |
| 2026-05-04 18:35 | 54.11912 | 12.71107 | 35146 ft | 425 kts | 201° |
| 2026-05-04 18:35 | 54.09072 | 12.69787 | 35343 ft | 425 kts | 201° |
| 2026-05-04 18:35 | 54.06244 | 12.68475 | 35529 ft | 425 kts | 201° |
| 2026-05-04 18:35 | 54.03416 | 12.67163 | 35717 ft | 424 kts | 201° |
| 2026-05-04 18:36 | 54.00571 | 12.65845 | 35879 ft | 425 kts | 201° |
| 2026-05-04 18:36 | 53.97713 | 12.64527 | 36034 ft | 425 kts | 201° |
| 2026-05-04 18:36 | 53.94888 | 12.63222 | 36170 ft | 425 kts | 201° |
| 2026-05-04 18:36 | 53.92022 | 12.61901 | 36311 ft | 425 kts | 201° |
| 2026-05-04 18:37 | 53.89170 | 12.60590 | 36426 ft | 426 kts | 201° |
| 2026-05-04 18:37 | 53.86305 | 12.59273 | 36535 ft | 427 kts | 201° |
| 2026-05-04 18:37 | 53.83478 | 12.57974 | 36701 ft | 427 kts | 201° |
| 2026-05-04 18:37 | 53.80603 | 12.56655 | 36838 ft | 428 kts | 201° |
| 2026-05-04 18:38 | 53.77734 | 12.55341 | 36959 ft | 429 kts | 200° |
| 2026-05-04 18:38 | 53.71970 | 12.52713 | 36961 ft | 430 kts | 200° |
| 2026-05-04 18:39 | 53.66204 | 12.50089 | 36996 ft | 430 kts | 200° |
| 2026-05-04 18:39 | 53.60464 | 12.47485 | 36986 ft | 429 kts | 200° |
| 2026-05-04 18:40 | 53.54716 | 12.44883 | 36959 ft | 428 kts | 200° |
| 2026-05-04 18:40 | 53.49003 | 12.42303 | 37004 ft | 428 kts | 200° |
| 2026-05-04 18:41 | 53.43283 | 12.39729 | 36976 ft | 427 kts | 200° |
| 2026-05-04 18:41 | 53.37580 | 12.37167 | 36962 ft | 426 kts | 200° |
| 2026-05-04 18:42 | 53.31844 | 12.34600 | 36954 ft | 426 kts | 200° |
| 2026-05-04 18:42 | 53.26108 | 12.32037 | 36948 ft | 427 kts | 200° |
| 2026-05-04 18:43 | 53.20385 | 12.29490 | 36957 ft | 427 kts | 200° |
| 2026-05-04 18:43 | 53.14669 | 12.26952 | 36956 ft | 427 kts | 199° |
| 2026-05-04 18:44 | 53.08952 | 12.24421 | 36951 ft | 427 kts | 199° |
| 2026-05-04 18:44 | 53.03214 | 12.21887 | 36948 ft | 425 kts | 199° |
| 2026-05-04 18:45 | 52.97548 | 12.19392 | 36951 ft | 424 kts | 199° |
| 2026-05-04 18:45 | 52.91869 | 12.16898 | 36955 ft | 425 kts | 199° |
| 2026-05-04 18:46 | 52.86154 | 12.14393 | 36959 ft | 426 kts | 199° |
| 2026-05-04 18:46 | 52.80453 | 12.11903 | 36960 ft | 426 kts | 199° |
| 2026-05-04 18:47 | 52.74741 | 12.09414 | 36968 ft | 426 kts | 199° |
| 2026-05-04 18:47 | 52.69022 | 12.06930 | 36960 ft | 426 kts | 199° |
| 2026-05-04 18:48 | 52.63308 | 12.04457 | 36960 ft | 425 kts | 199° |
| 2026-05-04 18:48 | 52.57618 | 12.01998 | 36961 ft | 425 kts | 199° |
| 2026-05-04 18:49 | 52.51925 | 11.99546 | 36946 ft | 424 kts | 199° |
| 2026-05-04 18:49 | 52.46211 | 11.97091 | 36942 ft | 425 kts | 199° |
| 2026-05-04 18:50 | 52.40505 | 11.94645 | 36954 ft | 425 kts | 199° |
| 2026-05-04 18:50 | 52.34798 | 11.92206 | 36948 ft | 425 kts | 199° |
| 2026-05-04 18:51 | 52.29086 | 11.89771 | 36946 ft | 424 kts | 199° |
| 2026-05-04 18:51 | 52.23413 | 11.87360 | 36950 ft | 424 kts | 199° |
| 2026-05-04 18:52 | 52.17714 | 11.84944 | 36942 ft | 425 kts | 199° |
| 2026-05-04 18:52 | 52.12014 | 11.82534 | 36942 ft | 424 kts | 199° |
| 2026-05-04 18:53 | 52.06306 | 11.80128 | 36939 ft | 425 kts | 199° |
| 2026-05-04 18:53 | 52.00565 | 11.77795 | 36569 ft | 424 kts | 194° |
| 2026-05-04 18:53 | 51.97669 | 11.77261 | 36136 ft | 422 kts | 189° |
| 2026-05-04 18:54 | 51.94746 | 11.76930 | 35684 ft | 418 kts | 188° |
| 2026-05-04 18:54 | 51.91877 | 11.76630 | 35237 ft | 417 kts | 188° |
| 2026-05-04 18:54 | 51.88981 | 11.76322 | 34736 ft | 417 kts | 188° |
| 2026-05-04 18:54 | 51.86089 | 11.76008 | 34166 ft | 418 kts | 188° |
| 2026-05-04 18:55 | 51.83159 | 11.75684 | 33597 ft | 420 kts | 188° |
| 2026-05-04 18:55 | 51.77349 | 11.75034 | 32476 ft | 423 kts | 188° |
| 2026-05-04 18:55 | 51.74403 | 11.74703 | 31913 ft | 424 kts | 188° |
| 2026-05-04 18:56 | 51.71482 | 11.74375 | 31360 ft | 426 kts | 188° |
| 2026-05-04 18:56 | 51.68503 | 11.74043 | 30801 ft | 427 kts | 188° |
| 2026-05-04 18:56 | 51.65554 | 11.73715 | 30249 ft | 429 kts | 188° |
| 2026-05-04 18:56 | 51.62581 | 11.73384 | 29698 ft | 426 kts | 188° |
| 2026-05-04 18:57 | 51.59657 | 11.73058 | 29155 ft | 423 kts | 188° |
| 2026-05-04 18:57 | 51.56737 | 11.72734 | 28608 ft | 420 kts | 188° |
| 2026-05-04 18:57 | 51.53824 | 11.72411 | 28062 ft | 417 kts | 188° |
| 2026-05-04 18:57 | 51.50979 | 11.72095 | 27525 ft | 414 kts | 187° |
| 2026-05-04 18:58 | 51.48108 | 11.71777 | 26976 ft | 411 kts | 188° |
| 2026-05-04 18:58 | 51.45295 | 11.71466 | 26439 ft | 408 kts | 187° |
| 2026-05-04 18:58 | 51.42458 | 11.71152 | 25892 ft | 405 kts | 187° |
| 2026-05-04 18:58 | 51.39682 | 11.70846 | 25355 ft | 402 kts | 187° |
| 2026-05-04 18:59 | 51.36912 | 11.70542 | 24975 ft | 400 kts | 187° |
| 2026-05-04 18:59 | 51.34139 | 11.70237 | 24935 ft | 401 kts | 187° |
| 2026-05-04 18:59 | 51.31357 | 11.69933 | 24932 ft | 401 kts | 187° |
| 2026-05-04 18:59 | 51.28563 | 11.69625 | 24931 ft | 402 kts | 187° |
| 2026-05-04 19:00 | 51.25800 | 11.69323 | 24931 ft | 402 kts | 187° |
| 2026-05-04 19:00 | 51.23011 | 11.69016 | 24932 ft | 402 kts | 187° |
| 2026-05-04 19:00 | 51.20220 | 11.68710 | 24935 ft | 401 kts | 187° |
| 2026-05-04 19:00 | 51.17467 | 11.68409 | 24934 ft | 401 kts | 187° |
| 2026-05-04 19:01 | 51.14658 | 11.68102 | 24934 ft | 401 kts | 187° |
| 2026-05-04 19:01 | 51.11884 | 11.67799 | 24934 ft | 401 kts | 187° |
| 2026-05-04 19:01 | 51.09085 | 11.67493 | 24936 ft | 401 kts | 187° |
| 2026-05-04 19:01 | 51.06301 | 11.67192 | 24936 ft | 401 kts | 187° |
| 2026-05-04 19:02 | 51.03552 | 11.66891 | 24936 ft | 401 kts | 187° |
| 2026-05-04 19:02 | 51.00756 | 11.66586 | 24570 ft | 401 kts | 187° |
| 2026-05-04 19:02 | 50.97997 | 11.66285 | 24038 ft | 397 kts | 186° |
| 2026-05-04 19:02 | 50.95251 | 11.65987 | 23504 ft | 393 kts | 186° |
| 2026-05-04 19:03 | 50.92530 | 11.65694 | 22985 ft | 391 kts | 186° |
| 2026-05-04 19:03 | 50.89859 | 11.65407 | 22476 ft | 388 kts | 186° |
| 2026-05-04 19:03 | 50.87159 | 11.65116 | 21959 ft | 385 kts | 186° |
| 2026-05-04 19:03 | 50.84517 | 11.64832 | 21450 ft | 383 kts | 186° |
| 2026-05-04 19:04 | 50.81884 | 11.64547 | 20933 ft | 381 kts | 186° |
| 2026-05-04 19:04 | 50.79243 | 11.64263 | 20422 ft | 378 kts | 186° |
| 2026-05-04 19:04 | 50.76646 | 11.63983 | 19930 ft | 374 kts | 186° |
| 2026-05-04 19:04 | 50.74054 | 11.63705 | 19612 ft | 373 kts | 186° |
| 2026-05-04 19:05 | 50.71473 | 11.63429 | 19303 ft | 371 kts | 186° |
| 2026-05-04 19:05 | 50.68900 | 11.63153 | 18995 ft | 370 kts | 186° |
| 2026-05-04 19:05 | 50.66359 | 11.62880 | 18693 ft | 368 kts | 186° |
| 2026-05-04 19:05 | 50.63812 | 11.62608 | 18388 ft | 366 kts | 186° |
| 2026-05-04 19:06 | 50.61266 | 11.62337 | 18079 ft | 365 kts | 186° |
| 2026-05-04 19:06 | 50.58749 | 11.62068 | 17783 ft | 363 kts | 186° |
| 2026-05-04 19:06 | 50.56258 | 11.61803 | 17488 ft | 361 kts | 186° |
| 2026-05-04 19:06 | 50.53760 | 11.61537 | 17190 ft | 360 kts | 186° |
| 2026-05-04 19:07 | 50.51267 | 11.61271 | 16893 ft | 358 kts | 186° |
| 2026-05-04 19:07 | 50.48785 | 11.61008 | 16596 ft | 356 kts | 186° |
| 2026-05-04 19:07 | 50.46331 | 11.60749 | 16299 ft | 355 kts | 186° |
| 2026-05-04 19:07 | 50.43857 | 11.60486 | 15999 ft | 353 kts | 186° |
| 2026-05-04 19:08 | 50.41421 | 11.60228 | 15701 ft | 351 kts | 186° |
| 2026-05-04 19:08 | 50.38991 | 11.59971 | 15406 ft | 350 kts | 186° |
| 2026-05-04 19:08 | 50.36596 | 11.59717 | 15112 ft | 348 kts | 186° |
| 2026-05-04 19:08 | 50.34186 | 11.59462 | 14817 ft | 346 kts | 186° |
| 2026-05-04 19:09 | 50.31776 | 11.59208 | 14516 ft | 344 kts | 186° |
| 2026-05-04 19:09 | 50.29417 | 11.58960 | 14218 ft | 342 kts | 186° |
| 2026-05-04 19:09 | 50.27056 | 11.58712 | 13920 ft | 340 kts | 186° |
| 2026-05-04 19:09 | 50.24684 | 11.58463 | 13623 ft | 338 kts | 186° |
| 2026-05-04 19:10 | 50.22353 | 11.58218 | 13330 ft | 336 kts | 186° |
| 2026-05-04 19:10 | 50.20047 | 11.57976 | 13036 ft | 334 kts | 186° |
| 2026-05-04 19:10 | 50.17746 | 11.57736 | 12743 ft | 333 kts | 186° |
| 2026-05-04 19:10 | 50.15425 | 11.57493 | 12447 ft | 331 kts | 186° |
| 2026-05-04 19:11 | 50.13137 | 11.57254 | 12147 ft | 329 kts | 186° |
| 2026-05-04 19:11 | 50.10871 | 11.57018 | 11850 ft | 328 kts | 186° |
| 2026-05-04 19:11 | 50.08603 | 11.56781 | 11553 ft | 326 kts | 186° |
| 2026-05-04 19:11 | 50.06356 | 11.56546 | 11257 ft | 325 kts | 186° |
| 2026-05-04 19:12 | 50.04081 | 11.56310 | 10987 ft | 324 kts | 186° |
| 2026-05-04 19:12 | 49.99585 | 11.55842 | 10933 ft | 325 kts | 186° |
| 2026-05-04 19:12 | 49.97353 | 11.55610 | 10911 ft | 325 kts | 186° |
| 2026-05-04 19:13 | 49.95081 | 11.55376 | 10785 ft | 325 kts | 186° |
| 2026-05-04 19:13 | 49.92829 | 11.55143 | 10659 ft | 324 kts | 186° |
| 2026-05-04 19:13 | 49.90614 | 11.54913 | 10537 ft | 323 kts | 186° |
| 2026-05-04 19:13 | 49.88347 | 11.54679 | 10408 ft | 323 kts | 186° |
| 2026-05-04 19:14 | 49.86104 | 11.54378 | 10198 ft | 322 kts | 188° |
| 2026-05-04 19:14 | 49.83904 | 11.53941 | 9815 ft | 316 kts | 189° |
| 2026-05-04 19:14 | 49.81802 | 11.53494 | 9414 ft | 301 kts | 189° |
| 2026-05-04 19:14 | 49.79778 | 11.53054 | 9014 ft | 286 kts | 189° |
| 2026-05-04 19:15 | 49.77860 | 11.52635 | 8618 ft | 273 kts | 189° |
| 2026-05-04 19:15 | 49.76000 | 11.52224 | 8232 ft | 273 kts | 189° |
| 2026-05-04 19:15 | 49.74128 | 11.51805 | 7836 ft | 272 kts | 189° |
| 2026-05-04 19:15 | 49.72253 | 11.51377 | 7434 ft | 271 kts | 189° |
| 2026-05-04 19:16 | 49.70411 | 11.50952 | 7046 ft | 270 kts | 189° |
| 2026-05-04 19:16 | 49.68546 | 11.50515 | 6648 ft | 270 kts | 189° |
| 2026-05-04 19:16 | 49.66704 | 11.50077 | 6255 ft | 269 kts | 190° |
| 2026-05-04 19:16 | 49.64852 | 11.49643 | 5975 ft | 267 kts | 190° |
| 2026-05-04 19:17 | 49.63028 | 11.49213 | 5758 ft | 267 kts | 189° |
| 2026-05-04 19:17 | 49.61219 | 11.48779 | 5550 ft | 259 kts | 189° |
| 2026-05-04 19:17 | 49.59455 | 11.48346 | 5348 ft | 252 kts | 189° |
| 2026-05-04 19:17 | 49.57763 | 11.47926 | 5131 ft | 246 kts | 190° |
| 2026-05-04 19:18 | 49.56084 | 11.47512 | 4879 ft | 240 kts | 190° |
| 2026-05-04 19:18 | 49.54463 | 11.47112 | 4635 ft | 239 kts | 189° |
| 2026-05-04 19:18 | 49.52804 | 11.46700 | 4386 ft | 240 kts | 190° |
| 2026-05-04 19:18 | 49.51174 | 11.46294 | 4141 ft | 240 kts | 190° |
| 2026-05-04 19:19 | 49.49521 | 11.45876 | 3996 ft | 233 kts | 192° |
| 2026-05-04 19:19 | 49.48106 | 11.44956 | 3968 ft | 218 kts | 223° |
| 2026-05-04 19:19 | 49.47267 | 11.43136 | 3982 ft | 207 kts | 251° |
| 2026-05-04 19:19 | 49.46889 | 11.41082 | 3989 ft | 194 kts | 264° |
| 2026-05-04 19:20 | 49.46818 | 11.39025 | 4060 ft | 192 kts | 274° |
| 2026-05-04 19:20 | 49.46956 | 11.37003 | 4019 ft | 190 kts | 281° |
| 2026-05-04 19:20 | 49.47181 | 11.35042 | 3988 ft | 181 kts | 283° |
| 2026-05-04 19:20 | 49.47398 | 11.33140 | 3962 ft | 180 kts | 281° |
| 2026-05-04 19:21 | 49.47595 | 11.31269 | 3773 ft | 179 kts | 281° |
| 2026-05-04 19:21 | 49.47782 | 11.29365 | 3533 ft | 178 kts | 281° |
| 2026-05-04 19:21 | 49.47960 | 11.27487 | 3298 ft | 177 kts | 281° |
| 2026-05-04 19:21 | 49.48133 | 11.25646 | 3065 ft | 174 kts | 281° |
| 2026-05-04 19:22 | 49.48300 | 11.23870 | 2849 ft | 160 kts | 281° |
| 2026-05-04 19:22 | 49.48454 | 11.22267 | 2630 ft | 146 kts | 281° |
| 2026-05-04 19:22 | 49.48594 | 11.20788 | 2417 ft | 139 kts | 281° |